Terminal Aerodrome Forecast
Issued by NWS

Home | Current Version | Previous Version | Graphics & Text | Print | Product List | Glossary On
Versions: 1 2 3 4 5 6 7 8 9 10 11 12 13 14 15 16 17 18 19
000
FTUS43 KFGF 181100
TAFBJI
TAF
KBJI 181120Z 1812/1912 VRB04KT P6SM OVC014
     FM182100 19007KT P6SM BKN025 BKN200
     FM190100 18009KT P6SM SCT020 BKN200=

USA.gov is the U.S. government's official web portal to all federal, state and local government web resources and services.